Time;durP1;ratioP1;P1;durP2;ratioP2;P2;SDS_P1;SDS_P2;PMS_P1;PMS_P2;Temp;Humidity;BMP_temperature;BMP_pressure;BME280_temperature;BME280_humidity;BME280_pressure;Samples;Min_cycle;Max_cycle;Signal;HPM_P1;HPM_P2
2023/01/28 00:01:16;;;;;;;13.15;5.90;;;;;;;3.68;100.00;102500.16;4956256;28;20058;-81
2023/01/28 00:03:43;;;;;;;14.30;5.88;;;;;;;3.71;100.00;102504.22;4958495;28;20845;-81
2023/01/28 00:06:14;;;;;;;11.43;5.78;;;;;;;3.64;100.00;102496.41;4957677;28;20085;-80
2023/01/28 00:08:41;;;;;;;10.63;5.65;;;;;;;3.70;100.00;102492.44;4952646;28;20357;-81
2023/01/28 00:11:10;;;;;;;14.38;6.68;;;;;;;3.71;100.00;102502.28;4953746;28;20059;-83
2023/01/28 00:13:37;;;;;;;9.73;4.70;;;;;;;3.71;100.00;102510.50;4961638;28;20050;-79
2023/01/28 00:16:07;;;;;;;13.25;5.63;;;;;;;3.68;100.00;102505.63;4959881;28;20060;-84
2023/01/28 00:18:34;;;;;;;13.40;6.18;;;;;;;3.67;100.00;102509.50;4956116;28;20046;-80
2023/01/28 00:21:12;;;;;;;12.77;6.28;;;;;;;3.68;100.00;102504.84;4952135;28;20065;-80
2023/01/28 00:23:41;;;;;;;11.93;4.80;;;;;;;3.66;100.00;102507.88;4953726;28;20139;-81
2023/01/28 00:26:12;;;;;;;16.70;6.05;;;;;;;3.68;100.00;102513.84;4963325;28;20058;-82
2023/01/28 00:28:40;;;;;;;12.60;5.38;;;;;;;3.67;100.00;102514.16;4961131;28;20062;-80
2023/01/28 00:31:17;;;;;;;11.65;5.78;;;;;;;3.55;100.00;102506.50;4952097;28;20131;-81
2023/01/28 00:33:45;;;;;;;13.70;6.65;;;;;;;3.63;100.00;102507.66;4958113;28;20733;-81
2023/01/28 00:36:13;;;;;;;15.65;6.43;;;;;;;3.63;100.00;102505.75;4961180;28;20551;-80
2023/01/28 00:38:41;;;;;;;14.07;5.93;;;;;;;3.57;100.00;102498.75;4959712;28;20117;-80
2023/01/28 00:41:16;;;;;;;11.70;5.55;;;;;;;3.59;100.00;102510.22;4954167;28;20054;-79
2023/01/28 00:43:46;;;;;;;14.10;6.32;;;;;;;3.57;100.00;102497.94;4959410;28;20050;-81
2023/01/28 00:46:13;;;;;;;12.90;5.68;;;;;;;3.63;100.00;102508.50;4961637;28;20488;-81
2023/01/28 00:48:41;;;;;;;11.80;5.68;;;;;;;3.62;100.00;102509.63;4946558;28;20047;-80
2023/01/28 00:51:09;;;;;;;13.57;6.20;;;;;;;3.61;100.00;102510.72;4953697;28;20133;-80
2023/01/28 00:53:37;;;;;;;10.20;5.32;;;;;;;3.63;100.00;102518.63;4962845;28;20059;-80
2023/01/28 00:56:05;;;;;;;12.57;5.07;;;;;;;3.55;100.00;102502.94;4963765;28;20046;-80
2023/01/28 00:58:33;;;;;;;12.88;5.20;;;;;;;3.58;100.00;102516.81;4965279;28;20161;-81
2023/01/28 01:01:15;;;;;;;11.88;5.45;;;;;;;3.58;100.00;102522.28;4949384;28;20075;-81
2023/01/28 01:03:42;;;;;;;12.90;6.07;;;;;;;3.60;100.00;102516.50;4962698;28;20121;-81
2023/01/28 01:06:10;;;;;;;12.63;6.15;;;;;;;3.60;100.00;102517.31;4955854;28;20046;-82
2023/01/28 01:08:41;;;;;;;12.43;5.28;;;;;;;3.57;100.00;102522.59;4951357;28;20158;-82
2023/01/28 01:11:10;;;;;;;14.48;5.43;;;;;;;3.54;100.00;102509.53;4957957;28;20159;-81
2023/01/28 01:13:36;;;;;;;13.05;6.70;;;;;;;3.56;100.00;102518.22;4954799;28;20050;-80
2023/01/28 01:16:06;;;;;;;11.35;6.15;;;;;;;3.52;100.00;102512.56;4956332;28;20055;-82
2023/01/28 01:18:33;;;;;;;11.52;5.88;;;;;;;3.51;100.00;102508.19;4952824;28;20794;-80
2023/01/28 01:21:01;;;;;;;14.90;5.80;;;;;;;3.53;100.00;102508.72;4947927;28;20573;-80
2023/01/28 01:23:29;;;;;;;11.38;5.63;;;;;;;3.53;100.00;102513.38;4954507;28;20086;-80
2023/01/28 01:25:56;;;;;;;12.88;5.93;;;;;;;3.48;100.00;102500.59;4952176;28;20055;-80
2023/01/28 01:28:22;;;;;;;12.43;5.90;;;;;;;3.53;100.00;102510.63;4951628;28;20152;-80
2023/01/28 01:30:49;;;;;;;12.82;5.75;;;;;;;3.51;100.00;102526.56;4947529;28;20148;-80
2023/01/28 01:33:16;;;;;;;11.23;5.57;;;;;;;3.44;100.00;102521.50;4938300;28;20953;-82
2023/01/28 01:35:42;;;;;;;10.55;4.70;;;;;;;3.27;100.00;102501.34;4945063;28;20054;-81
2023/01/28 01:38:10;;;;;;;10.80;5.22;;;;;;;3.42;100.00;102523.75;4948376;28;20055;-80
2023/01/28 01:40:36;;;;;;;11.85;6.30;;;;;;;3.41;100.00;102535.00;4957121;28;20058;-81
2023/01/28 01:43:14;;;;;;;13.50;6.28;;;;;;;3.42;100.00;102529.22;4947402;28;20050;-80
2023/01/28 01:45:43;;;;;;;15.75;6.70;;;;;;;3.40;100.00;102531.44;4941630;28;20509;-80
2023/01/28 01:48:19;;;;;;;11.70;5.80;;;;;;;3.39;100.00;102529.81;4950912;28;20233;-81
2023/01/28 01:50:54;;;;;;;12.30;5.18;;;;;;;3.41;100.00;102535.78;4948195;28;20050;-81
2023/01/28 01:53:25;;;;;;;13.57;6.22;;;;;;;3.39;100.00;102540.75;4946751;28;20054;-81
2023/01/28 01:55:57;;;;;;;12.75;5.72;;;;;;;3.39;100.00;102535.28;4952818;28;20055;-81
2023/01/28 01:58:27;;;;;;;12.60;5.80;;;;;;;3.37;100.00;102531.25;4953081;28;20728;-82
2023/01/28 02:00:54;;;;;;;14.02;5.75;;;;;;;3.34;100.00;102538.13;4941104;28;20062;-79
2023/01/28 02:03:28;;;;;;;12.77;5.75;;;;;;;3.27;100.00;102528.72;4954182;28;20833;-79
2023/01/28 02:05:55;;;;;;;13.73;6.15;;;;;;;3.34;100.00;102531.84;4952544;28;20063;-81
2023/01/28 02:08:21;;;;;;;14.70;6.57;;;;;;;3.34;100.00;102531.84;4953426;28;20056;-81
2023/01/28 02:10:52;;;;;;;13.50;5.63;;;;;;;3.31;100.00;102538.72;4955053;28;20054;-83
2023/01/28 02:13:21;;;;;;;13.88;6.35;;;;;;;3.33;100.00;102541.97;4949046;28;20836;-82
2023/01/28 02:15:48;;;;;;;13.80;6.53;;;;;;;3.34;100.00;102551.00;4950738;28;20057;-81
2023/01/28 02:18:15;;;;;;;12.55;5.90;;;;;;;3.29;100.00;102540.16;4956267;28;20046;-78
2023/01/28 02:21:13;;;;;;;13.27;6.00;;;;;;;3.25;100.00;102539.97;4952369;28;20050;-80
2023/01/28 02:24:00;;;;;;;11.48;5.63;;;;;;;3.30;100.00;102541.78;4960041;28;20061;-79
2023/01/28 02:26:44;;;;;;;13.77;6.85;;;;;;;3.32;100.00;102545.00;4950303;28;20138;-79
2023/01/28 02:29:26;;;;;;;14.07;7.17;;;;;;;3.32;100.00;102543.09;4956920;28;20070;-79
2023/01/28 02:32:06;;;;;;;12.20;6.10;;;;;;;3.27;100.00;102534.19;4955570;28;20050;-80
2023/01/28 02:34:50;;;;;;;13.20;6.10;;;;;;;3.29;100.00;102538.22;4949596;28;20051;-81
2023/01/28 02:37:37;;;;;;;11.77;5.72;;;;;;;3.33;100.00;102541.16;4932363;28;20101;-80
2023/01/28 02:40:12;;;;;;;10.48;5.70;;;;;;;3.30;100.00;102537.09;4949687;28;20501;-81
2023/01/28 02:42:40;;;;;;;15.25;6.78;;;;;;;3.33;100.00;102547.44;4956156;28;20051;-82
2023/01/28 02:45:17;;;;;;;15.30;6.68;;;;;;;3.31;100.00;102546.13;4954914;28;20166;-81
2023/01/28 02:47:59;;;;;;;13.07;6.22;;;;;;;3.32;100.00;102548.56;4946953;28;20050;-82
2023/01/28 02:50:38;;;;;;;13.70;6.85;;;;;;;3.32;100.00;102550.50;4948364;28;20069;-80
2023/01/28 02:53:49;;;;;;;11.98;6.50;;;;;;;3.31;100.00;102544.19;4963185;28;20050;-81
2023/01/28 02:56:18;;;;;;;13.25;5.72;;;;;;;3.35;100.00;102547.97;4954123;28;20050;-81
2023/01/28 02:59:29;;;;;;;12.77;6.47;;;;;;;3.33;100.00;102541.16;4952277;28;20241;-79
2023/01/28 03:01:57;;;;;;;15.15;7.03;;;;;;;3.30;100.00;102534.38;4953531;28;20077;-81
2023/01/28 03:04:31;;;;;;;15.43;7.30;;;;;;;3.33;100.00;102541.97;4968137;28;20505;-80
2023/01/28 03:07:03;;;;;;;15.88;7.32;;;;;;;3.35;100.00;102539.75;4977097;28;20065;-80
2023/01/28 03:09:29;;;;;;;16.52;7.28;;;;;;;3.35;100.00;102534.28;4972862;28;20057;-81
2023/01/28 03:37:42;;;;;;;20.67;9.38;;;;;;;3.34;100.00;102532.66;4966793;28;20050;-79
2023/01/28 03:40:10;;;;;;;16.33;7.97;;;;;;;3.36;100.00;102532.34;4959159;28;20047;-78
2023/01/28 03:42:37;;;;;;;16.77;8.00;;;;;;;3.28;100.00;102533.06;4952523;28;20430;-81
2023/01/28 03:45:06;;;;;;;22.40;10.00;;;;;;;3.31;100.00;102535.19;4966140;28;20047;-82
2023/01/28 03:47:33;;;;;;;18.05;9.00;;;;;;;3.33;100.00;102544.72;4974650;28;20671;-80
2023/01/28 03:50:02;;;;;;;18.02;9.43;;;;;;;3.35;100.00;102544.41;4972727;28;20065;-82
2023/01/28 03:52:31;;;;;;;19.05;9.25;;;;;;;3.34;100.00;102540.06;4979687;28;20067;-80
2023/01/28 03:54:59;;;;;;;19.95;9.55;;;;;;;3.31;100.00;102543.41;4967392;28;20127;-80
2023/01/28 03:57:27;;;;;;;17.38;9.48;;;;;;;3.31;100.00;102549.66;4968874;28;20048;-79
2023/01/28 03:59:54;;;;;;;19.17;9.75;;;;;;;3.30;100.00;102545.31;4958672;28;20058;-79
2023/01/28 04:02:22;;;;;;;19.92;10.20;;;;;;;3.28;100.00;102538.53;4963101;28;20039;-79
2023/01/28 04:04:49;;;;;;;18.10;9.68;;;;;;;3.25;100.00;102548.16;4978546;28;20054;-80
2023/01/28 04:07:16;;;;;;;18.02;8.73;;;;;;;3.27;100.00;102553.34;4973506;28;20093;-79
2023/01/28 04:09:43;;;;;;;22.80;10.70;;;;;;;3.29;100.00;102551.91;4976937;28;20114;-80
2023/01/28 04:12:10;;;;;;;20.23;9.85;;;;;;;3.25;100.00;102552.81;4971993;28;20414;-79
2023/01/28 04:14:38;;;;;;;20.80;10.70;;;;;;;3.28;100.00;102561.25;4978719;28;20046;-79
2023/01/28 04:17:06;;;;;;;19.25;10.65;;;;;;;3.30;100.00;102564.47;4971155;28;20061;-80
2023/01/28 04:19:36;;;;;;;19.15;10.52;;;;;;;3.29;100.00;102553.81;4981905;28;20054;-80
2023/01/28 04:22:04;;;;;;;21.20;11.40;;;;;;;3.30;100.00;102561.72;4965720;28;20086;-81
2023/01/28 04:24:32;;;;;;;19.23;9.85;;;;;;;3.29;100.00;102565.59;4968686;28;20055;-80
2023/01/28 04:26:58;;;;;;;18.10;9.27;;;;;;;3.27;100.00;102570.53;4981568;28;20480;-81
2023/01/28 04:29:25;;;;;;;18.95;9.93;;;;;;;3.24;100.00;102565.69;4987314;28;20051;-81
2023/01/28 04:31:52;;;;;;;20.02;10.52;;;;;;;3.27;100.00;102575.22;4978350;28;20053;-78
2023/01/28 04:34:19;;;;;;;22.23;9.15;;;;;;;3.23;100.00;102574.19;4973805;28;20055;-79
2023/01/28 04:36:45;;;;;;;17.60;9.35;;;;;;;3.20;100.00;102569.34;4951646;28;20051;-79
2023/01/28 04:39:12;;;;;;;20.77;8.75;;;;;;;3.19;100.00;102571.25;4967367;28;20509;-78
2023/01/28 04:41:39;;;;;;;18.05;9.35;;;;;;;3.16;100.00;102560.09;4970231;28;20050;-82
2023/01/28 04:44:05;;;;;;;18.38;9.07;;;;;;;3.17;100.00;102572.69;4981784;28;20786;-79
2023/01/28 04:46:32;;;;;;;20.13;9.57;;;;;;;3.16;100.00;102568.31;4969146;28;20058;-79
2023/01/28 04:48:58;;;;;;;17.52;8.63;;;;;;;3.17;100.00;102569.94;4971119;28;20061;-80
2023/01/28 04:51:25;;;;;;;19.52;10.02;;;;;;;3.15;100.00;102564.78;4975203;28;20066;-80
2023/01/28 04:53:51;;;;;;;21.08;9.18;;;;;;;3.09;100.00;102565.16;4972609;28;20534;-79
2023/01/28 04:56:18;;;;;;;20.60;10.70;;;;;;;3.09;100.00;102574.19;4972028;28;20043;-80
2023/01/28 04:58:44;;;;;;;19.85;10.75;;;;;;;3.10;100.00;102558.59;4976198;28;20394;-78
2023/01/28 05:01:11;;;;;;;18.45;9.80;;;;;;;3.08;100.00;102560.81;4962722;28;20047;-78
2023/01/28 05:03:37;;;;;;;18.65;9.98;;;;;;;3.07;100.00;102553.72;4971075;28;20050;-80
2023/01/28 05:06:04;;;;;;;19.33;9.55;;;;;;;3.07;100.00;102556.47;4977710;28;20181;-79
2023/01/28 05:08:31;;;;;;;22.80;10.55;;;;;;;3.04;100.00;102563.38;4970925;28;20046;-79
2023/01/28 05:10:57;;;;;;;19.73;10.77;;;;;;;3.02;100.00;102556.56;4965357;28;20054;-79
2023/01/28 05:13:24;;;;;;;20.25;10.25;;;;;;;3.00;100.00;102561.53;4969796;28;20053;-80
2023/01/28 05:15:52;;;;;;;19.50;10.18;;;;;;;2.97;100.00;102556.66;4970240;28;20166;-79
2023/01/28 05:18:19;;;;;;;19.55;10.35;;;;;;;3.00;100.00;102554.13;4971288;28;20043;-82
2023/01/28 05:20:46;;;;;;;20.42;11.07;;;;;;;2.94;100.00;102555.34;4971418;28;20057;-79
2023/01/28 05:23:13;;;;;;;22.25;12.00;;;;;;;2.92;100.00;102563.03;4956786;28;20130;-79
2023/01/28 05:25:39;;;;;;;21.02;10.63;;;;;;;2.87;100.00;102560.38;4956451;28;20051;-80
2023/01/28 05:28:06;;;;;;;21.17;11.57;;;;;;;2.87;100.00;102559.59;4976478;28;20058;-80
2023/01/28 05:30:33;;;;;;;24.25;12.63;;;;;;;2.90;100.00;102565.25;4981385;28;20060;-79
2023/01/28 05:32:59;;;;;;;21.85;12.75;;;;;;;2.92;100.00;102573.97;4970611;28;20129;-81
2023/01/28 05:35:26;;;;;;;23.08;12.23;;;;;;;2.91;100.00;102566.88;4966584;28;20055;-81
2023/01/28 05:37:52;;;;;;;22.92;12.02;;;;;;;2.93;100.00;102572.84;4955430;28;20065;-81
2023/01/28 05:40:19;;;;;;;25.52;12.05;;;;;;;2.88;100.00;102572.94;4971346;28;20054;-80
2023/01/28 05:42:46;;;;;;;25.83;13.00;;;;;;;2.89;100.00;102573.75;4980451;28;20050;-79
2023/01/28 05:45:12;;;;;;;25.15;11.82;;;;;;;2.89;100.00;102580.03;4964952;28;20055;-79
2023/01/28 05:47:39;;;;;;;25.42;12.82;;;;;;;2.87;100.00;102579.50;4961172;28;20473;-78
2023/01/28 05:50:12;;;;;;;22.20;11.50;;;;;;;2.90;100.00;102581.66;4971273;28;20093;-79
2023/01/28 05:52:39;;;;;;;23.75;12.55;;;;;;;2.91;100.00;102598.88;4990808;28;20108;-81
2023/01/28 05:55:06;;;;;;;22.60;11.82;;;;;;;2.91;100.00;102607.06;4979517;28;20057;-79
2023/01/28 05:57:33;;;;;;;28.80;14.05;;;;;;;2.93;100.00;102596.66;4973410;28;20059;-80
2023/01/28 05:59:59;;;;;;;30.85;13.77;;;;;;;2.89;100.00;102590.16;4961223;28;20532;-81
2023/01/28 06:02:26;;;;;;;27.98;14.77;;;;;;;2.91;100.00;102594.22;4964535;28;20137;-80
2023/01/28 06:04:53;;;;;;;29.45;15.35;;;;;;;2.83;100.00;102585.91;4970430;28;20055;-80
2023/01/28 06:07:19;;;;;;;25.00;14.20;;;;;;;2.88;100.00;102589.34;4967857;28;20055;-80
2023/01/28 06:09:46;;;;;;;26.27;14.50;;;;;;;2.82;100.00;102582.34;4955235;28;20053;-78
2023/01/28 06:12:13;;;;;;;28.45;14.40;;;;;;;2.84;100.00;102593.81;4965560;28;20047;-81
2023/01/28 06:14:40;;;;;;;24.27;13.02;;;;;;;2.80;100.00;102587.28;4985597;28;20057;-80
2023/01/28 06:17:07;;;;;;;24.23;12.88;;;;;;;2.77;100.00;102593.38;4966576;28;20054;-80
2023/01/28 06:19:33;;;;;;;27.40;14.40;;;;;;;2.74;100.00;102586.56;4964856;28;20482;-81
2023/01/28 06:22:00;;;;;;;24.33;12.70;;;;;;;2.77;100.00;102593.38;4961115;28;20051;-78
2023/01/28 06:24:26;;;;;;;23.92;13.18;;;;;;;2.76;100.00;102585.50;4970343;28;20050;-80
2023/01/28 06:26:53;;;;;;;25.48;13.43;;;;;;;2.76;100.00;102593.69;4964530;28;20058;-80
2023/01/28 06:29:19;;;;;;;26.02;13.75;;;;;;;2.76;100.00;102597.22;4956564;28;20059;-81
2023/01/28 06:31:46;;;;;;;26.05;14.13;;;;;;;2.78;100.00;102594.19;4960348;28;20617;-80
2023/01/28 06:34:13;;;;;;;25.27;13.68;;;;;;;2.78;100.00;102593.06;4962519;28;20118;-80
2023/01/28 06:36:39;;;;;;;26.98;13.00;;;;;;;2.76;100.00;102591.75;4966581;28;20057;-79
2023/01/28 06:39:06;;;;;;;28.85;14.40;;;;;;;2.78;100.00;102595.00;4957669;28;20450;-78
2023/01/28 06:41:32;;;;;;;27.38;13.85;;;;;;;2.73;100.00;102582.22;4958769;28;20051;-80
2023/01/28 06:43:59;;;;;;;29.45;14.90;;;;;;;2.67;100.00;102577.94;4958864;28;20047;-80
2023/01/28 06:46:25;;;;;;;26.58;14.48;;;;;;;2.74;100.00;102588.53;4964474;28;20101;-81
2023/01/28 06:48:52;;;;;;;24.30;13.60;;;;;;;2.71;100.00;102586.38;4969065;28;20051;-80
2023/01/28 06:51:18;;;;;;;24.67;13.23;;;;;;;2.74;100.00;102585.78;4974512;28;20056;-79
2023/01/28 06:53:45;;;;;;;26.13;13.30;;;;;;;2.67;100.00;102588.09;4973143;28;20038;-79
2023/01/28 06:56:11;;;;;;;22.73;12.40;;;;;;;2.65;100.00;102593.84;4963616;28;20139;-82
2023/01/28 06:58:38;;;;;;;24.05;12.77;;;;;;;2.67;100.00;102590.81;4965047;28;20129;-81
2023/01/28 07:01:04;;;;;;;24.42;12.98;;;;;;;2.69;100.00;102586.69;4975122;28;20050;-80
2023/01/28 07:03:31;;;;;;;24.17;13.27;;;;;;;2.70;100.00;102596.50;4968924;28;20045;-79
2023/01/28 07:05:57;;;;;;;23.55;12.27;;;;;;;2.64;100.00;102578.53;4950962;28;20051;-80
2023/01/28 07:08:23;;;;;;;26.42;13.57;;;;;;;2.70;100.00;102595.66;4967707;28;20058;-80
2023/01/28 07:10:50;;;;;;;24.00;11.77;;;;;;;2.68;100.00;102587.78;4969844;28;20057;-81
2023/01/28 07:13:17;;;;;;;22.92;12.30;;;;;;;2.67;100.00;102597.09;4969576;28;20042;-79
2023/01/28 07:15:43;;;;;;;22.35;11.60;;;;;;;2.57;100.00;102585.53;4964641;28;20047;-78
2023/01/28 07:18:10;;;;;;;24.33;13.45;;;;;;;2.63;100.00;102595.25;4964964;28;20059;-81
2023/01/28 07:20:36;;;;;;;23.75;13.50;;;;;;;2.64;100.00;102589.47;4960049;28;20145;-81
2023/01/28 07:23:03;;;;;;;20.90;11.52;;;;;;;2.61;100.00;102594.75;4963383;28;20074;-79
2023/01/28 07:25:30;;;;;;;23.13;12.30;;;;;;;2.62;100.00;102591.72;4966170;28;20054;-81
2023/01/28 07:27:56;;;;;;;25.70;13.57;;;;;;;2.67;100.00;102596.28;4965987;28;20066;-80
2023/01/28 07:30:23;;;;;;;25.20;12.13;;;;;;;2.69;100.00;102610.44;4959303;28;20048;-80
2023/01/28 07:32:54;;;;;;;23.50;12.73;;;;;;;2.65;100.00;102604.78;4965743;28;20045;-79
2023/01/28 07:35:21;;;;;;;24.20;13.40;;;;;;;2.66;100.00;102600.13;4968637;28;20055;-78
2023/01/28 07:37:56;;;;;;;23.20;12.82;;;;;;;2.63;100.00;102601.53;4968333;28;20046;-78
2023/01/28 07:40:24;;;;;;;24.67;13.00;;;;;;;2.65;100.00;102591.13;4968282;28;20405;-80
2023/01/28 07:42:51;;;;;;;24.55;13.13;;;;;;;2.66;100.00;102602.84;4969377;28;20054;-80
2023/01/28 07:45:18;;;;;;;24.02;13.25;;;;;;;2.66;100.00;102603.66;4960504;28;20232;-78
2023/01/28 07:47:51;;;;;;;25.30;12.82;;;;;;;2.68;100.00;102617.03;4963536;28;20054;-80
2023/01/28 07:50:18;;;;;;;24.17;13.73;;;;;;;2.67;100.00;102609.97;4969623;28;20053;-80
2023/01/28 07:52:44;;;;;;;29.67;12.55;;;;;;;2.66;100.00;102609.13;4973139;28;20046;-81
2023/01/28 07:55:14;;;;;;;25.02;13.20;;;;;;;2.72;100.00;102624.34;4974844;28;20102;-78
2023/01/28 07:58:07;;;;;;;23.30;12.50;;;;;;;2.74;100.00;102626.78;4983379;28;20055;-78
2023/01/28 08:00:35;;;;;;;24.17;13.10;;;;;;;2.76;100.00;102629.22;4970495;28;20057;-78
2023/01/28 08:03:15;;;;;;;21.80;11.85;;;;;;;2.79;100.00;102629.41;4978013;28;20064;-79
2023/01/28 08:05:47;;;;;;;24.83;13.70;;;;;;;2.81;100.00;102626.38;4971403;28;20404;-79
2023/01/28 08:08:15;;;;;;;24.27;14.35;;;;;;;2.82;100.00;102617.88;4961177;28;20307;-79
2023/01/28 08:10:45;;;;;;;27.42;14.43;;;;;;;2.81;100.00;102627.22;4956024;28;20081;-80
2023/01/28 08:13:13;;;;;;;28.05;14.23;;;;;;;2.81;100.00;102615.47;4970004;28;20042;-79
2023/01/28 08:15:40;;;;;;;24.80;15.00;;;;;;;2.80;100.00;102619.31;4954972;28;20141;-82
2023/01/28 08:18:09;;;;;;;27.73;14.63;;;;;;;2.85;100.00;102639.16;4967302;28;21004;-80
2023/01/28 08:20:35;;;;;;;23.95;13.65;;;;;;;2.85;100.00;102641.91;4974657;28;20085;-82
2023/01/28 08:23:12;;;;;;;22.35;12.98;;;;;;;2.90;100.00;102641.81;4974325;28;20043;-82
2023/01/28 08:25:39;;;;;;;24.42;12.30;;;;;;;2.93;100.00;102643.94;4969037;28;20456;-81
2023/01/28 08:28:06;;;;;;;22.48;12.00;;;;;;;2.88;100.00;102657.72;4970284;28;20046;-81
2023/01/28 08:30:36;;;;;;;26.52;13.95;;;;;;;2.96;100.00;102662.50;4965870;28;20077;-76
2023/01/28 08:33:04;;;;;;;26.10;13.95;;;;;;;2.95;100.00;102657.31;4968797;28;20047;-75
2023/01/28 08:35:31;;;;;;;23.17;12.38;;;;;;;2.96;100.00;102659.75;4965057;28;20070;-78
2023/01/28 08:37:59;;;;;;;26.15;13.50;;;;;;;2.97;100.00;102668.78;4963666;28;20046;-81
2023/01/28 08:40:27;;;;;;;26.85;14.50;;;;;;;3.01;100.00;102689.75;4969363;28;20533;-79
2023/01/28 08:42:53;;;;;;;25.67;14.23;;;;;;;3.02;100.00;102690.56;4962796;28;20146;-79
2023/01/28 08:45:23;;;;;;;29.23;14.27;;;;;;;3.00;100.00;102695.53;4972771;28;20053;-79
2023/01/28 08:48:01;;;;;;;28.40;12.55;;;;;;;3.01;100.00;102695.22;4978422;28;20051;-80
2023/01/28 08:50:33;;;;;;;22.40;12.80;;;;;;;3.01;100.00;102697.97;4985335;28;20057;-79
2023/01/28 08:53:03;;;;;;;21.90;12.82;;;;;;;3.03;100.00;102712.13;4959293;28;20062;-80
2023/01/28 08:55:30;;;;;;;21.92;12.05;;;;;;;3.02;100.00;102705.06;4972169;28;20042;-79
2023/01/28 08:57:56;;;;;;;22.52;11.40;;;;;;;3.01;100.00;102713.56;4974420;28;20417;-81
2023/01/28 09:00:24;;;;;;;24.50;12.43;;;;;;;3.03;100.00;102728.56;4952945;28;20053;-79
2023/01/28 09:02:52;;;;;;;26.92;12.13;;;;;;;2.97;100.00;102718.00;4969268;28;20046;-81
2023/01/28 09:05:19;;;;;;;22.70;12.65;;;;;;;3.03;100.00;102728.56;4977872;28;20077;-81
2023/01/28 09:07:46;;;;;;;25.60;12.65;;;;;;;3.02;100.00;102723.38;4991002;28;20057;-78
2023/01/28 09:10:13;;;;;;;25.08;12.77;;;;;;;3.04;100.00;102718.44;4952503;28;20154;-80
2023/01/28 09:12:40;;;;;;;25.73;13.18;;;;;;;3.05;100.00;102726.34;4969768;28;20138;-80
2023/01/28 09:15:08;;;;;;;24.58;13.00;;;;;;;3.05;100.00;102731.00;4956709;28;20464;-80
2023/01/28 09:17:35;;;;;;;30.83;15.15;;;;;;;3.00;100.00;102737.34;4969403;28;20489;-80
2023/01/28 09:20:01;;;;;;;24.80;12.50;;;;;;;3.03;100.00;102727.75;4968684;28;20073;-78
2023/01/28 09:22:28;;;;;;;26.10;14.05;;;;;;;3.04;100.00;102713.78;4970923;28;20047;-80
2023/01/28 09:24:54;;;;;;;26.25;13.15;;;;;;;3.04;100.00;102730.19;4968520;28;20047;-81
2023/01/28 09:27:20;;;;;;;25.77;11.13;;;;;;;3.08;100.00;102741.34;4977214;28;20050;-79
2023/01/28 09:29:47;;;;;;;22.10;12.68;;;;;;;3.08;100.00;102746.81;4972493;28;20043;-80
2023/01/28 09:32:13;;;;;;;24.23;13.50;;;;;;;3.08;100.00;102744.06;4968641;28;20600;-80
2023/01/28 09:34:40;;;;;;;21.92;11.15;;;;;;;3.08;100.00;102742.16;4969348;28;20042;-79
2023/01/28 09:37:06;;;;;;;23.83;12.27;;;;;;;3.08;100.00;102739.41;4961764;28;20112;-78
2023/01/28 09:39:33;;;;;;;25.88;13.00;;;;;;;3.07;100.00;102745.19;4963942;28;20082;-81
2023/01/28 09:42:03;;;;;;;23.00;12.65;;;;;;;3.05;100.00;102747.41;4968357;28;20126;-82
2023/01/28 09:44:55;;;;;;;20.67;10.65;;;;;;;3.06;100.00;102754.47;4971485;28;20045;-81
2023/01/28 09:47:31;;;;;;;22.10;12.13;;;;;;;3.03;100.00;102738.69;4969396;28;20069;-81
2023/01/28 09:50:01;;;;;;;22.27;11.38;;;;;;;3.11;100.00;102746.22;4976287;28;20149;-79
2023/01/28 09:52:33;;;;;;;25.17;10.85;;;;;;;3.06;100.00;102744.38;4972213;28;20055;-80
2023/01/28 09:55:04;;;;;;;21.80;11.43;;;;;;;3.14;100.00;102751.09;4985390;28;20050;-80
2023/01/28 09:57:40;;;;;;;21.92;11.45;;;;;;;3.16;100.00;102754.31;4965536;28;20051;-81
2023/01/28 10:00:36;;;;;;;19.10;9.55;;;;;;;3.18;100.00;102752.94;4967431;28;20528;-81
2023/01/28 10:03:05;;;;;;;;;;;;;;;3.19;100.00;102754.56;4971563;28;20681;-80
2023/01/28 10:05:50;;;;;;;20.85;8.00;;;;;;;3.19;100.00;102762.75;4974385;28;20443;-79
2023/01/28 10:08:26;;;;;;;22.87;11.10;;;;;;;3.24;100.00;102757.19;4964318;28;20051;-80
2023/01/28 10:10:59;;;;;;;20.05;9.73;;;;;;;3.19;100.00;102760.03;4970140;28;20295;-79
2023/01/28 10:13:59;;;;;;;20.67;10.40;;;;;;;3.20;100.00;102747.97;4970164;28;20050;-79
2023/01/28 10:16:49;;;;;;;22.20;11.43;;;;;;;3.17;100.00;102745.03;4966501;28;20075;-79
2023/01/28 10:19:26;;;;;;;21.23;10.70;;;;;;;3.12;100.00;102721.28;4973096;28;20050;-80
2023/01/28 10:21:59;;;;;;;16.15;7.28;;;;;;;3.24;100.00;102734.50;4967193;28;20095;-79
2023/01/28 10:24:32;;;;;;;23.48;11.13;;;;;;;3.28;100.00;102730.06;4984127;28;20046;-80
2023/01/28 10:26:59;;;;;;;21.25;10.75;;;;;;;3.34;100.00;102724.19;4966626;28;20046;-82
2023/01/28 10:29:32;;;;;;;23.98;11.30;;;;;;;3.40;100.00;102711.22;4971044;28;20126;-79
2023/01/28 10:32:04;;;;;;;19.35;9.77;;;;;;;3.39;100.00;102713.16;4969322;28;20649;-81
2023/01/28 10:34:30;;;;;;;23.40;9.45;;;;;;;3.45;100.00;102725.66;4972103;28;20417;-80
2023/01/28 10:36:57;;;;;;;15.32;7.32;;;;;;;3.44;100.00;102734.16;4972252;28;20059;-81
2023/01/28 10:39:25;;;;;;;24.67;12.30;;;;;;;3.54;100.00;102740.25;4967696;28;20142;-82
2023/01/28 10:41:52;;;;;;;20.83;9.57;;;;;;;3.51;100.00;102737.31;4970724;28;20614;-81
2023/01/28 10:44:37;;;;;;;25.20;11.15;;;;;;;3.58;100.00;102741.25;4972886;28;20051;-80
2023/01/28 10:47:12;;;;;;;22.73;11.00;;;;;;;3.60;100.00;102744.53;4972468;28;20445;-80
2023/01/28 10:49:48;;;;;;;25.08;10.95;;;;;;;3.54;100.00;102740.25;4970895;28;20070;-81
2023/01/28 10:52:15;;;;;;;26.25;12.10;;;;;;;3.58;100.00;102745.94;4970751;28;20057;-82
2023/01/28 10:54:42;;;;;;;26.02;12.57;;;;;;;3.59;100.00;102745.66;4974556;28;20046;-80
2023/01/28 10:57:16;;;;;;;27.90;15.68;;;;;;;3.57;100.00;102744.31;4969841;28;20500;-81
2023/01/28 10:59:43;;;;;;;25.30;11.27;;;;;;;3.55;100.00;102752.84;4975208;28;20054;-80
2023/01/28 11:02:31;;;;;;;30.40;13.65;;;;;;;3.54;100.00;102764.88;4962004;28;20053;-82
2023/01/28 11:05:26;;;;;;;32.67;14.50;;;;;;;3.51;100.00;102760.00;4971941;28;20532;-81
2023/01/28 11:08:14;;;;;;;28.95;13.10;;;;;;;3.37;100.00;102750.16;4969110;28;20145;-81
2023/01/28 11:10:41;;;;;;;26.60;12.80;;;;;;;3.41;100.00;102762.91;4967220;28;20079;-80
2023/01/28 11:13:28;;;;;;;28.02;14.25;;;;;;;3.37;100.00;102761.91;4967651;28;21767;-81
2023/01/28 11:16:02;;;;;;;33.03;15.55;;;;;;;3.41;100.00;102765.66;4973595;28;20074;-81
2023/01/28 11:18:34;;;;;;;29.25;13.10;;;;;;;3.34;100.00;102767.19;4969632;28;20058;-82
2023/01/28 11:21:04;;;;;;;31.98;13.80;;;;;;;3.33;100.00;102758.16;4961291;28;20066;-81
2023/01/28 11:23:35;;;;;;;29.35;14.48;;;;;;;3.30;100.00;102750.53;4964023;28;20075;-79
2023/01/28 11:26:21;;;;;;;29.17;13.20;;;;;;;3.37;100.00;102755.63;4961869;28;20065;-81
2023/01/28 11:28:49;;;;;;;32.75;14.63;;;;;;;3.40;100.00;102761.31;4975861;28;20137;-81
2023/01/28 11:31:17;;;;;;;28.08;14.52;;;;;;;3.45;100.00;102752.19;4968773;28;20047;-81
2023/01/28 11:33:57;;;;;;;26.00;11.90;;;;;;;3.42;100.00;102759.09;4963668;28;20059;-80
2023/01/28 11:36:28;;;;;;;28.83;13.80;;;;;;;3.51;100.00;102751.00;4974343;28;20101;-81
2023/01/28 11:39:01;;;;;;;29.08;14.10;;;;;;;3.46;100.00;102754.63;4979847;28;20061;-81
2023/01/28 11:41:33;;;;;;;28.08;12.38;;;;;;;3.44;100.00;102751.38;4961549;28;20049;-79
2023/01/28 11:44:14;;;;;;;29.67;14.45;;;;;;;3.36;100.00;102743.88;4972861;28;20055;-80
2023/01/28 11:47:36;;;;;;;26.90;13.35;;;;;;;3.36;100.00;102743.03;4964467;28;20050;-79
2023/01/28 11:50:03;;;;;;;29.30;14.70;;;;;;;3.43;100.00;102748.94;4908553;29;20091;-82
2023/01/28 11:52:47;;;;;;;31.52;16.10;;;;;;;3.37;100.00;102747.44;4975328;28;20047;-81